Time;durP1;ratioP1;P1;durP2;ratioP2;P2;SDS_P1;SDS_P2;PMS_P1;PMS_P2;Temp;Humidity;BMP_temperature;BMP_pressure;BME280_temperature;BME280_humidity;BME280_pressure;Samples;Min_cycle;Max_cycle;Signal;HPM_P1;HPM_P2
2021/11/15 00:02:14;;;;;;;24.45;14.18;;;8.90;83.00;;;;;;5053835;28;20496;-67
2021/11/15 00:04:41;;;;;;;22.88;14.10;;;8.90;82.90;;;;;;5055182;28;20425;-67
2021/11/15 00:07:06;;;;;;;24.60;14.50;;;8.80;82.80;;;;;;5054034;28;20025;-67
2021/11/15 00:09:32;;;;;;;23.00;13.93;;;8.90;82.90;;;;;;5056068;28;20062;-66
2021/11/15 00:11:59;;;;;;;25.77;14.45;;;8.80;82.90;;;;;;5053591;28;20037;-67
2021/11/15 00:14:25;;;;;;;23.33;14.25;;;8.80;82.80;;;;;;5057263;28;20059;-67
2021/11/15 00:16:51;;;;;;;24.77;14.23;;;8.70;82.70;;;;;;5052003;28;20032;-66
2021/11/15 00:19:17;;;;;;;24.65;14.20;;;8.70;82.80;;;;;;5053655;28;20043;-67
2021/11/15 00:21:43;;;;;;;25.13;15.10;;;8.70;82.90;;;;;;5052316;28;20032;-66
2021/11/15 00:24:08;;;;;;;24.75;15.10;;;8.60;83.70;;;;;;5056403;28;20396;-66
2021/11/15 00:26:34;;;;;;;29.00;15.32;;;8.60;82.70;;;;;;5053536;28;20047;-66
2021/11/15 00:29:00;;;;;;;26.27;14.88;;;8.60;82.80;;;;;;5053871;28;20033;-67
2021/11/15 00:31:26;;;;;;;25.40;14.10;;;8.50;82.70;;;;;;5055052;28;20040;-67
2021/11/15 00:33:52;;;;;;;24.50;14.80;;;8.50;82.90;;;;;;5058133;28;20480;-67
2021/11/15 00:36:19;;;;;;;27.08;15.45;;;8.40;82.90;;;;;;5058691;28;20598;-65
2021/11/15 00:38:45;;;;;;;28.27;15.35;;;8.50;83.10;;;;;;5055549;28;20066;-67
2021/11/15 00:41:11;;;;;;;27.13;14.85;;;8.40;83.10;;;;;;5057236;28;20041;-67
2021/11/15 00:43:37;;;;;;;26.02;14.73;;;8.40;83.10;;;;;;5056864;28;20060;-66
2021/11/15 00:46:03;;;;;;;27.92;15.40;;;8.40;83.10;;;;;;5059103;28;20029;-67
2021/11/15 00:48:29;;;;;;;25.90;15.23;;;8.30;83.10;;;;;;5056866;28;20075;-67
2021/11/15 00:50:55;;;;;;;27.17;15.70;;;8.40;83.10;;;;;;5057705;28;20061;-66
2021/11/15 00:53:20;;;;;;;28.25;15.63;;;8.30;83.10;;;;;;5057376;28;20446;-67
2021/11/15 00:55:46;;;;;;;26.92;15.15;;;8.30;83.10;;;;;;5053481;28;20029;-66
2021/11/15 00:58:12;;;;;;;29.90;16.27;;;8.30;83.30;;;;;;5057392;28;20040;-67
2021/11/15 01:00:41;;;;;;;27.42;16.02;;;8.30;83.30;;;;;;5056554;28;20040;-67
2021/11/15 01:03:08;;;;;;;28.15;15.90;;;8.30;83.30;;;;;;5058220;28;20025;-67
2021/11/15 01:05:36;;;;;;;27.95;16.38;;;8.30;83.40;;;;;;5058687;28;20051;-67
2021/11/15 01:08:03;;;;;;;27.63;15.48;;;8.30;83.40;;;;;;5057244;28;20045;-67
2021/11/15 01:10:28;;;;;;;28.00;15.63;;;8.20;83.40;;;;;;5055051;28;20032;-67
2021/11/15 01:12:54;;;;;;;31.45;16.42;;;8.30;83.50;;;;;;5056245;28;20434;-67
2021/11/15 01:15:25;;;;;;;29.08;15.98;;;8.20;83.40;;;;;;5057432;28;20470;-67
2021/11/15 01:17:52;;;;;;;28.48;16.13;;;8.20;83.40;;;;;;5056385;28;20057;-67
2021/11/15 01:20:22;;;;;;;29.80;15.48;;;8.20;83.40;;;;;;5056306;28;20036;-67
2021/11/15 01:22:48;;;;;;;28.85;16.00;;;8.20;83.40;;;;;;5055428;28;20089;-67
2021/11/15 01:25:14;;;;;;;28.85;15.43;;;8.20;83.50;;;;;;5057414;28;20033;-67
2021/11/15 01:27:39;;;;;;;26.10;14.95;;;8.20;83.40;;;;;;5056818;28;20025;-67
2021/11/15 01:30:09;;;;;;;27.98;15.02;;;8.20;83.30;;;;;;5057395;28;20059;-67
2021/11/15 01:32:39;;;;;;;29.48;15.85;;;8.20;82.70;;;;;;5056828;28;20411;-67
2021/11/15 01:35:06;;;;;;;28.30;16.08;;;8.20;83.30;;;;;;5056090;28;20597;-68
2021/11/15 01:37:32;;;;;;;30.02;16.10;;;8.20;83.30;;;;;;5054764;28;20032;-68
2021/11/15 01:39:57;;;;;;;28.20;15.82;;;8.20;83.20;;;;;;5056877;28;20033;-67
2021/11/15 01:42:23;;;;;;;29.20;14.82;;;8.20;83.10;;;;;;5062899;28;20029;-67
2021/11/15 01:44:49;;;;;;;26.48;15.13;;;8.10;83.10;;;;;;5064216;28;20056;-67
2021/11/15 01:47:15;;;;;;;25.83;14.80;;;8.10;83.30;;;;;;5063981;28;20503;-67
2021/11/15 01:49:40;;;;;;;27.33;14.48;;;8.10;83.10;;;;;;5063254;28;20545;-67
2021/11/15 01:52:07;;;;;;;25.52;14.40;;;8.10;83.20;;;;;;5063342;28;20029;-66
2021/11/15 01:54:33;;;;;;;26.38;14.13;;;8.10;83.30;;;;;;5062854;28;20043;-67
2021/11/15 01:56:59;;;;;;;27.85;14.32;;;8.10;83.30;;;;;;5061323;28;21008;-67
2021/11/15 01:59:25;;;;;;;26.13;14.60;;;8.00;83.10;;;;;;5063356;28;20047;-67
2021/11/15 02:01:51;;;;;;;26.02;14.30;;;8.10;83.30;;;;;;5067396;28;20039;-67
2021/11/15 02:04:16;;;;;;;23.52;14.07;;;8.00;83.10;;;;;;5063410;28;20033;-67
2021/11/15 02:06:42;;;;;;;27.08;14.45;;;8.00;83.10;;;;;;5064925;28;20025;-67
2021/11/15 02:09:08;;;;;;;23.30;12.95;;;8.00;83.10;;;;;;5063206;28;20033;-67
2021/11/15 02:11:35;;;;;;;25.33;13.50;;;8.10;83.10;;;;;;5060395;28;20381;-67
2021/11/15 02:14:03;;;;;;;24.38;14.23;;;8.00;83.10;;;;;;5060845;28;20511;-67
2021/11/15 02:16:30;;;;;;;23.88;13.68;;;8.00;83.00;;;;;;5057705;28;20036;-67
2021/11/15 02:18:56;;;;;;;25.85;14.05;;;8.00;83.10;;;;;;5057704;28;20047;-67
2021/11/15 02:21:23;;;;;;;23.85;13.13;;;7.90;83.10;;;;;;5062807;28;20071;-67
2021/11/15 02:23:51;;;;;;;26.08;14.30;;;7.90;83.10;;;;;;5062558;28;20407;-67
2021/11/15 02:26:18;;;;;;;25.52;14.30;;;7.90;83.10;;;;;;5060320;28;20064;-67
2021/11/15 02:28:47;;;;;;;26.98;14.68;;;7.90;83.10;;;;;;5060809;28;20044;-67
2021/11/15 02:31:22;;;;;;;25.05;14.15;;;7.90;83.20;;;;;;5061863;28;20456;-68
2021/11/15 02:33:51;;;;;;;27.58;14.30;;;7.90;83.30;;;;;;5063364;28;20044;-67
2021/11/15 02:36:17;;;;;;;24.85;13.57;;;7.90;83.40;;;;;;5060408;28;20502;-67
2021/11/15 02:38:43;;;;;;;23.73;13.02;;;7.90;83.30;;;;;;5057939;28;20458;-67
2021/11/15 02:41:08;;;;;;;22.77;13.05;;;7.90;83.30;;;;;;5059549;28;20036;-67
2021/11/15 02:43:34;;;;;;;24.77;13.63;;;7.90;83.30;;;;;;5063715;28;20106;-67
2021/11/15 02:46:00;;;;;;;23.70;13.32;;;7.90;83.20;;;;;;5063271;28;20032;-67
2021/11/15 02:48:27;;;;;;;24.00;13.13;;;7.90;83.20;;;;;;5062108;28;20510;-67
2021/11/15 02:50:53;;;;;;;24.92;13.00;;;7.90;83.20;;;;;;5062369;28;20464;-67
2021/11/15 02:53:20;;;;;;;22.42;12.80;;;7.90;83.30;;;;;;5061497;28;20056;-67
2021/11/15 02:55:46;;;;;;;21.08;12.00;;;7.80;83.30;;;;;;5058135;28;20120;-67
2021/11/15 02:58:14;;;;;;;21.42;12.35;;;7.80;83.40;;;;;;5060033;28;20060;-67
2021/11/15 03:00:57;;;;;;;22.85;13.30;;;7.80;83.40;;;;;;5059245;28;20144;-67
2021/11/15 03:03:24;;;;;;;22.13;11.90;;;7.80;83.30;;;;;;5058189;28;20124;-67
2021/11/15 03:05:53;;;;;;;22.85;12.38;;;7.80;83.30;;;;;;5059183;28;20041;-68
2021/11/15 03:08:20;;;;;;;20.77;12.00;;;7.80;83.30;;;;;;5059075;28;20070;-68
2021/11/15 03:10:49;;;;;;;20.00;11.77;;;7.80;83.40;;;;;;5057067;28;20562;-67
2021/11/15 03:13:17;;;;;;;23.00;12.73;;;7.70;83.40;;;;;;5057259;28;20036;-67
2021/11/15 03:15:47;;;;;;;22.23;12.20;;;7.70;83.60;;;;;;5059065;28;20481;-67
2021/11/15 03:18:21;;;;;;;23.17;12.57;;;7.70;83.40;;;;;;5059130;28;20024;-67
2021/11/15 03:20:50;;;;;;;22.35;12.52;;;7.70;83.50;;;;;;5058525;28;20041;-67
2021/11/15 03:23:19;;;;;;;19.35;11.23;;;7.70;83.60;;;;;;5058114;28;20113;-68
2021/11/15 03:25:46;;;;;;;23.30;12.73;;;7.70;83.60;;;;;;5059020;28;20501;-67
2021/11/15 03:28:15;;;;;;;21.25;11.93;;;7.70;83.60;;;;;;5057924;28;20935;-67
2021/11/15 03:30:42;;;;;;;23.98;12.60;;;7.70;83.60;;;;;;5058034;28;20087;-66
2021/11/15 03:33:09;;;;;;;22.77;12.38;;;7.70;83.50;;;;;;5060092;28;20024;-67
2021/11/15 03:35:35;;;;;;;24.95;12.23;;;7.70;83.50;;;;;;5059901;28;20033;-67
2021/11/15 03:38:01;;;;;;;23.48;12.38;;;7.70;83.50;;;;;;5059192;28;20036;-67
2021/11/15 03:40:28;;;;;;;24.52;12.60;;;7.70;83.60;;;;;;5055985;28;20045;-67
2021/11/15 03:42:57;;;;;;;21.90;12.52;;;7.70;83.70;;;;;;5057122;28;20025;-67
2021/11/15 03:45:24;;;;;;;25.50;12.55;;;7.70;83.60;;;;;;5058622;28;20115;-67
2021/11/15 03:47:51;;;;;;;24.63;13.40;;;7.60;83.60;;;;;;5057646;28;20060;-66
2021/11/15 03:50:17;;;;;;;21.88;11.93;;;7.60;83.60;;;;;;5056484;28;20040;-67
2021/11/15 03:52:45;;;;;;;21.67;12.10;;;7.60;83.60;;;;;;5058134;28;20028;-67
2021/11/15 03:55:13;;;;;;;22.23;11.85;;;7.60;83.60;;;;;;5057638;28;20065;-66
2021/11/15 03:57:40;;;;;;;22.08;11.77;;;7.60;83.60;;;;;;5057823;28;20187;-67
2021/11/15 04:00:10;;;;;;;21.27;12.13;;;7.60;83.60;;;;;;5058633;28;20110;-67
2021/11/15 04:02:37;;;;;;;20.25;11.60;;;7.60;83.60;;;;;;5057929;28;20032;-67
2021/11/15 04:05:06;;;;;;;21.52;12.00;;;7.50;83.60;;;;;;5056601;28;20396;-66
2021/11/15 04:07:38;;;;;;;23.70;12.07;;;7.50;83.70;;;;;;5054901;28;20079;-66
2021/11/15 04:10:22;;;;;;;21.45;12.07;;;7.50;83.80;;;;;;5057764;28;20110;-65
2021/11/15 04:12:49;;;;;;;20.80;12.18;;;7.50;83.80;;;;;;5056462;28;20032;-69
2021/11/15 04:15:15;;;;;;;22.10;12.38;;;7.50;83.90;;;;;;5057648;28;20083;-66
2021/11/15 04:17:43;;;;;;;23.23;12.40;;;7.50;84.00;;;;;;5057641;28;20527;-66
2021/11/15 04:20:12;;;;;;;23.63;12.20;;;7.50;84.00;;;;;;5058226;28;20158;-67
2021/11/15 04:22:38;;;;;;;23.42;12.18;;;7.50;84.00;;;;;;5058234;28;21081;-66
2021/11/15 04:25:06;;;;;;;22.98;11.98;;;7.50;84.00;;;;;;5058701;28;20037;-69
2021/11/15 04:27:32;;;;;;;22.90;12.90;;;7.50;84.00;;;;;;5057184;28;20025;-68
2021/11/15 04:29:57;;;;;;;22.20;12.48;;;7.50;84.10;;;;;;5056366;28;20082;-67
2021/11/15 04:32:23;;;;;;;23.23;12.68;;;7.50;84.20;;;;;;5058534;28;20086;-68
2021/11/15 04:34:48;;;;;;;24.65;13.38;;;7.60;84.30;;;;;;5057855;28;20047;-67
2021/11/15 04:37:14;;;;;;;23.27;12.60;;;7.50;84.20;;;;;;5056938;28;20029;-67
2021/11/15 04:39:40;;;;;;;24.88;12.43;;;7.60;84.20;;;;;;5054051;28;20029;-67
2021/11/15 04:42:06;;;;;;;25.88;13.57;;;7.50;84.00;;;;;;5054692;28;20653;-68
2021/11/15 04:44:31;;;;;;;27.77;13.05;;;7.50;83.90;;;;;;5052718;28;20032;-67
2021/11/15 04:46:57;;;;;;;23.98;12.95;;;7.50;83.80;;;;;;5053647;28;20040;-67
2021/11/15 04:49:23;;;;;;;24.60;12.93;;;7.50;83.80;;;;;;5052898;28;20029;-68
2021/11/15 04:51:49;;;;;;;25.83;13.45;;;7.50;83.80;;;;;;5052406;28;20037;-68
2021/11/15 04:54:15;;;;;;;23.63;12.43;;;7.50;83.90;;;;;;5052130;28;20037;-68
2021/11/15 04:56:42;;;;;;;25.25;12.60;;;7.50;83.90;;;;;;5051326;28;20523;-67
2021/11/15 04:59:08;;;;;;;27.88;12.85;;;7.50;83.90;;;;;;5054103;28;20040;-67
2021/11/15 05:01:34;;;;;;;25.25;12.35;;;7.50;84.00;;;;;;5053728;28;20029;-68
2021/11/15 05:04:00;;;;;;;24.27;12.40;;;7.40;84.00;;;;;;5052668;28;20036;-68
2021/11/15 05:06:25;;;;;;;24.15;12.32;;;7.40;84.00;;;;;;5052171;28;20071;-68
2021/11/15 05:08:51;;;;;;;23.13;11.85;;;7.40;84.00;;;;;;5052848;28;20170;-67
2021/11/15 05:11:17;;;;;;;24.35;12.43;;;7.40;84.00;;;;;;5052182;28;20041;-68
2021/11/15 05:13:43;;;;;;;24.20;11.95;;;7.40;84.00;;;;;;5055312;28;20109;-68
2021/11/15 05:16:08;;;;;;;24.33;12.57;;;7.40;84.00;;;;;;5052464;28;20047;-67
2021/11/15 05:18:34;;;;;;;22.52;11.38;;;7.50;84.10;;;;;;5053110;28;20765;-67
2021/11/15 05:20:59;;;;;;;24.50;12.82;;;7.40;84.00;;;;;;5053057;28;20101;-68
2021/11/15 05:23:27;;;;;;;23.00;12.55;;;7.50;84.00;;;;;;5054217;28;20043;-68
2021/11/15 05:25:53;;;;;;;24.00;12.50;;;7.50;84.00;;;;;;5052802;28;20641;-68
2021/11/15 05:28:19;;;;;;;22.23;12.18;;;7.40;84.10;;;;;;5052617;28;20063;-68
2021/11/15 05:30:45;;;;;;;23.80;12.88;;;7.40;84.00;;;;;;5055802;28;20047;-68
2021/11/15 05:33:10;;;;;;;23.52;12.55;;;7.40;84.00;;;;;;5054191;28;20282;-68
2021/11/15 05:35:36;;;;;;;21.95;11.65;;;7.40;84.00;;;;;;5051046;28;20458;-68
2021/11/15 05:38:02;;;;;;;26.00;13.55;;;7.50;84.10;;;;;;5053785;28;20425;-67
2021/11/15 05:40:28;;;;;;;22.88;12.43;;;7.40;84.10;;;;;;5052209;28;20047;-67
2021/11/15 05:42:55;;;;;;;24.15;12.52;;;7.40;84.10;;;;;;5052834;28;20112;-68
2021/11/15 05:45:23;;;;;;;25.17;12.80;;;7.40;84.00;;;;;;5050612;28;20036;-66
2021/11/15 05:47:49;;;;;;;24.98;13.15;;;7.40;84.00;;;;;;5052512;28;20029;-68
2021/11/15 05:50:16;;;;;;;24.92;12.13;;;7.40;84.00;;;;;;5059607;28;20128;-68
2021/11/15 05:52:43;;;;;;;25.50;13.02;;;7.40;84.00;;;;;;5054885;28;20029;-68
2021/11/15 05:55:14;;;;;;;23.80;12.52;;;7.40;84.10;;;;;;5058426;28;20036;-67
2021/11/15 05:57:40;;;;;;;26.20;13.35;;;7.40;84.10;;;;;;5057811;28;20037;-67
2021/11/15 06:00:09;;;;;;;28.17;14.23;;;7.40;84.20;;;;;;5057271;28;20033;-67
2021/11/15 06:02:34;;;;;;;25.10;13.30;;;7.40;84.30;;;;;;5056364;28;20494;-67
2021/11/15 06:05:00;;;;;;;24.10;13.45;;;7.40;84.20;;;;;;5055560;28;20442;-67
2021/11/15 06:07:26;;;;;;;25.98;12.85;;;7.40;84.30;;;;;;5055256;28;20036;-67
2021/11/15 06:09:51;;;;;;;26.88;13.93;;;7.40;84.30;;;;;;5060393;28;20452;-67
2021/11/15 06:12:17;;;;;;;25.77;13.60;;;7.40;84.30;;;;;;5056992;28;20029;-67
2021/11/15 06:14:42;;;;;;;26.92;13.55;;;7.40;84.30;;;;;;5059135;28;20530;-68
2021/11/15 06:17:08;;;;;;;29.67;14.43;;;7.40;84.40;;;;;;5057397;28;20037;-68
2021/11/15 06:19:34;;;;;;;29.58;13.27;;;7.40;84.40;;;;;;5056728;28;20500;-68
2021/11/15 06:22:01;;;;;;;24.98;12.82;;;7.40;84.30;;;;;;5058080;28;20078;-68
2021/11/15 06:24:27;;;;;;;24.10;11.55;;;7.40;84.40;;;;;;5058148;28;20075;-68
2021/11/15 06:26:52;;;;;;;24.70;12.57;;;7.40;84.50;;;;;;5056940;28;20507;-68
2021/11/15 06:29:18;;;;;;;24.80;12.18;;;7.40;84.40;;;;;;5060006;28;20033;-67
2021/11/15 06:31:43;;;;;;;21.38;11.32;;;7.40;84.30;;;;;;5059688;28;20347;-64
2021/11/15 06:34:09;;;;;;;22.92;12.48;;;7.40;84.30;;;;;;5060922;28;20033;-68
2021/11/15 06:36:35;;;;;;;22.60;11.70;;;7.40;84.20;;;;;;5063684;28;20036;-68
2021/11/15 06:39:01;;;;;;;22.95;11.52;;;7.40;84.20;;;;;;5062002;28;20061;-67
2021/11/15 06:41:26;;;;;;;21.00;11.45;;;7.40;84.20;;;;;;5062469;28;20127;-68
2021/11/15 06:43:52;;;;;;;25.92;11.93;;;7.40;84.30;;;;;;5061925;28;20048;-67
2021/11/15 06:46:19;;;;;;;23.33;10.80;;;7.40;84.30;;;;;;5060991;28;20059;-67
2021/11/15 06:48:44;;;;;;;23.45;11.63;;;7.30;84.20;;;;;;5061977;28;20040;-68
2021/11/15 06:51:11;;;;;;;21.20;11.77;;;7.30;84.20;;;;;;5061064;28;20441;-68
2021/11/15 06:53:39;;;;;;;22.48;11.95;;;7.30;85.10;;;;;;5061279;28;20090;-68
2021/11/15 06:56:06;;;;;;;22.20;11.98;;;7.30;84.30;;;;;;5062906;28;20190;-67
2021/11/15 06:58:32;;;;;;;23.58;12.35;;;7.30;84.30;;;;;;5060818;28;20069;-67
2021/11/15 07:00:59;;;;;;;21.55;11.50;;;7.30;84.30;;;;;;5063162;28;20128;-67
2021/11/15 07:03:24;;;;;;;26.27;12.77;;;7.30;84.30;;;;;;5060564;28;20098;-67
2021/11/15 07:05:50;;;;;;;27.40;12.68;;;7.30;84.50;;;;;;5061919;28;20523;-68
2021/11/15 07:08:16;;;;;;;23.77;11.65;;;7.30;84.50;;;;;;5065081;28;20044;-67
2021/11/15 07:10:42;;;;;;;25.70;12.27;;;7.30;84.50;;;;;;5061106;28;20063;-67
2021/11/15 07:13:08;;;;;;;22.42;11.65;;;7.30;84.50;;;;;;5059196;28;20521;-68
2021/11/15 07:15:34;;;;;;;25.45;13.20;;;7.30;84.50;;;;;;5060042;28;20036;-67
2021/11/15 07:18:00;;;;;;;24.33;12.45;;;7.40;84.60;;;;;;5060788;28;20495;-68
2021/11/15 07:20:25;;;;;;;25.20;13.13;;;7.40;84.60;;;;;;5060972;28;20025;-68
2021/11/15 07:22:51;;;;;;;25.48;13.77;;;7.40;84.60;;;;;;5061118;28;20633;-67
2021/11/15 07:25:18;;;;;;;26.95;15.48;;;7.40;84.70;;;;;;5062035;28;20865;-65
2021/11/15 07:27:46;;;;;;;23.40;12.35;;;7.40;84.70;;;;;;5061246;28;20383;-67
2021/11/15 07:30:12;;;;;;;24.00;12.60;;;7.40;84.70;;;;;;5061490;28;20400;-68
2021/11/15 07:32:39;;;;;;;23.95;12.55;;;7.40;84.60;;;;;;5061413;28;20044;-66
2021/11/15 07:35:05;;;;;;;22.77;12.93;;;7.50;84.70;;;;;;5060248;28;20052;-66
2021/11/15 07:37:30;;;;;;;27.33;14.40;;;7.50;84.60;;;;;;5059931;28;20033;-67
2021/11/15 07:39:56;;;;;;;27.80;14.85;;;7.50;84.70;;;;;;5059403;28;20029;-67
2021/11/15 07:42:22;;;;;;;24.50;12.32;;;7.50;84.60;;;;;;5060665;28;20021;-67
2021/11/15 07:44:48;;;;;;;25.17;13.88;;;7.50;84.60;;;;;;5059857;28;20388;-67
2021/11/15 07:47:15;;;;;;;23.92;12.60;;;7.50;85.30;;;;;;5060117;28;20040;-67
2021/11/15 07:49:42;;;;;;;23.88;12.50;;;7.50;84.50;;;;;;5060104;28;20074;-66
2021/11/15 07:52:07;;;;;;;22.08;13.10;;;7.50;84.60;;;;;;5058642;28;20060;-67
2021/11/15 07:54:34;;;;;;;24.55;12.10;;;7.50;84.80;;;;;;5060923;28;20045;-66
2021/11/15 07:57:00;;;;;;;24.23;11.90;;;7.50;84.80;;;;;;5060863;28;20503;-66
2021/11/15 07:59:26;;;;;;;21.55;12.30;;;7.50;84.80;;;;;;5060152;28;20036;-67
2021/11/15 08:01:52;;;;;;;22.40;12.10;;;7.50;84.80;;;;;;5060715;28;20037;-67
2021/11/15 08:04:19;;;;;;;23.08;11.38;;;7.50;84.80;;;;;;5060191;28;20171;-67
2021/11/15 08:06:45;;;;;;;23.00;12.70;;;7.50;84.80;;;;;;5057100;28;20041;-66
2021/11/15 08:09:11;;;;;;;23.67;11.35;;;7.50;84.80;;;;;;5059049;28;20115;-66
2021/11/15 08:11:41;;;;;;;20.40;10.88;;;7.60;84.80;;;;;;5057913;28;20262;-67
2021/11/15 08:14:07;;;;;;;16.55;9.65;;;7.50;84.80;;;;;;5057403;28;20033;-67
2021/11/15 08:16:32;;;;;;;19.17;9.73;;;7.50;84.60;;;;;;5060581;28;20040;-66
2021/11/15 08:18:58;;;;;;;15.93;9.10;;;7.50;84.60;;;;;;5060320;28;20040;-67
2021/11/15 08:21:24;;;;;;;16.35;8.82;;;7.50;84.50;;;;;;5059208;28;20124;-66
2021/11/15 08:23:51;;;;;;;17.95;9.05;;;7.50;84.40;;;;;;5058811;28;20025;-66
2021/11/15 08:26:44;;;;;;;17.17;9.20;;;7.50;84.50;;;;;;5057326;28;20040;-67
2021/11/15 08:29:12;;;;;;;17.10;9.63;;;7.50;84.40;;;;;;5059571;28;20025;-66
2021/11/15 08:31:40;;;;;;;16.30;8.27;;;7.50;84.50;;;;;;5057630;28;20029;-66
2021/11/15 08:34:06;;;;;;;20.17;9.48;;;7.50;84.60;;;;;;5060146;28;20043;-67
2021/11/15 08:36:33;;;;;;;16.55;8.90;;;7.50;84.60;;;;;;5056446;28;20067;-66
2021/11/15 08:39:06;;;;;;;15.52;8.13;;;7.50;84.60;;;;;;5058319;28;20052;-67
2021/11/15 08:41:39;;;;;;;15.50;8.63;;;7.50;84.50;;;;;;5062188;28;20033;-66
2021/11/15 08:44:08;;;;;;;16.98;9.07;;;7.50;84.50;;;;;;5058552;28;20032;-67
2021/11/15 08:46:34;;;;;;;16.48;9.00;;;7.50;84.50;;;;;;5057562;28;20033;-66
2021/11/15 08:49:04;;;;;;;16.52;9.00;;;7.50;84.40;;;;;;5060929;28;20040;-67
2021/11/15 08:51:30;;;;;;;14.45;8.32;;;7.60;84.40;;;;;;5059418;28;20571;-66
2021/11/15 08:53:57;;;;;;;14.07;8.25;;;7.60;84.50;;;;;;5058887;28;20108;-67
2021/11/15 08:56:23;;;;;;;14.80;8.02;;;7.60;84.40;;;;;;5057981;28;20037;-67
2021/11/15 08:58:48;;;;;;;17.02;8.80;;;7.60;84.50;;;;;;5058802;28;20584;-67
2021/11/15 09:01:15;;;;;;;15.90;8.02;;;7.60;84.50;;;;;;5059231;28;20041;-66
2021/11/15 09:03:42;;;;;;;16.85;8.60;;;7.60;84.40;;;;;;5058359;28;20086;-66
2021/11/15 09:06:09;;;;;;;15.57;8.07;;;7.60;84.40;;;;;;5056977;28;20033;-67
2021/11/15 09:08:36;;;;;;;13.10;8.00;;;7.60;84.30;;;;;;5059416;28;20108;-66
2021/11/15 09:11:03;;;;;;;15.27;8.05;;;7.60;84.20;;;;;;5062757;28;20451;-67
2021/11/15 09:13:29;;;;;;;15.00;8.10;;;7.60;85.10;;;;;;5059631;28;20037;-67
2021/11/15 09:15:55;;;;;;;13.50;7.88;;;7.60;84.30;;;;;;5058292;28;20412;-67
2021/11/15 09:18:21;;;;;;;13.70;7.75;;;7.60;84.40;;;;;;5059526;28;20040;-66
2021/11/15 09:20:47;;;;;;;12.60;7.90;;;7.60;84.50;;;;;;5057032;28;20072;-67
2021/11/15 09:23:13;;;;;;;15.25;7.90;;;7.60;84.30;;;;;;5059280;28;20056;-67
2021/11/15 09:25:41;;;;;;;13.80;7.25;;;7.70;84.10;;;;;;5057144;28;20083;-67
2021/11/15 09:28:08;;;;;;;14.90;7.88;;;7.60;84.00;;;;;;5059265;28;20124;-67
2021/11/15 09:30:34;;;;;;;13.32;7.07;;;7.50;83.90;;;;;;5058805;28;20033;-67
2021/11/15 09:33:00;;;;;;;13.27;7.40;;;7.60;84.00;;;;;;5058869;28;20105;-66
2021/11/15 09:35:26;;;;;;;14.38;7.90;;;7.60;84.00;;;;;;5057257;28;20645;-66
2021/11/15 09:37:52;;;;;;;14.15;7.80;;;7.60;84.10;;;;;;5057766;28;20399;-67
2021/11/15 09:40:18;;;;;;;13.05;7.80;;;7.60;84.10;;;;;;5057280;28;20024;-67
2021/11/15 09:42:44;;;;;;;12.43;7.30;;;7.60;84.10;;;;;;5058511;28;20075;-67
2021/11/15 09:45:10;;;;;;;14.13;8.05;;;7.60;84.10;;;;;;5058357;28;20032;-66
2021/11/15 09:47:40;;;;;;;14.18;7.35;;;7.60;84.10;;;;;;5058234;28;20049;-67
2021/11/15 09:50:12;;;;;;;17.08;8.35;;;7.60;84.00;;;;;;5060661;28;20056;-67
2021/11/15 09:52:37;;;;;;;13.88;7.45;;;7.60;84.10;;;;;;5058320;28;20108;-67
2021/11/15 09:55:04;;;;;;;13.40;7.35;;;7.60;84.10;;;;;;5056618;28;20112;-65
2021/11/15 09:57:35;;;;;;;13.45;7.43;;;7.60;84.20;;;;;;5056352;28;20503;-67
2021/11/15 10:00:01;;;;;;;14.77;8.18;;;7.60;84.30;;;;;;5057647;28;20168;-67
2021/11/15 10:02:26;;;;;;;15.90;8.35;;;7.60;84.30;;;;;;5059652;28;20115;-67
2021/11/15 10:04:52;;;;;;;13.52;7.45;;;7.60;84.30;;;;;;5064397;28;20108;-67
2021/11/15 10:07:35;;;;;;;17.77;8.75;;;7.60;84.40;;;;;;5060585;28;20419;-67
2021/11/15 10:10:23;;;;;;;17.17;8.25;;;7.70;84.50;;;;;;5062565;28;20159;-66
2021/11/15 10:13:08;;;;;;;14.75;7.93;;;7.70;84.40;;;;;;5059617;28;20036;-66
2021/11/15 10:15:47;;;;;;;17.90;8.35;;;7.70;84.30;;;;;;5062328;28;20051;-67
2021/11/15 10:18:18;;;;;;;14.18;7.82;;;7.70;84.20;;;;;;5062097;28;20425;-67
2021/11/15 10:20:51;;;;;;;15.55;8.07;;;7.70;84.10;;;;;;5060287;28;20108;-66
2021/11/15 10:23:43;;;;;;;16.67;8.23;;;7.70;84.10;;;;;;5060518;28;20051;-67
2021/11/15 10:26:20;;;;;;;16.10;8.13;;;7.80;84.10;;;;;;5061872;28;20060;-66
2021/11/15 10:28:51;;;;;;;16.85;8.15;;;7.80;84.10;;;;;;5060768;28;20112;-66
2021/11/15 10:31:29;;;;;;;12.23;7.15;;;7.80;84.00;;;;;;5061058;28;20399;-66
2021/11/15 10:33:55;;;;;;;14.93;7.47;;;7.80;84.00;;;;;;5061540;28;20059;-66
2021/11/15 10:36:42;;;;;;;13.95;7.55;;;7.80;84.00;;;;;;5060798;28;20052;-66
2021/11/15 10:39:08;;;;;;;12.75;7.38;;;7.80;83.80;;;;;;5043416;28;20568;-66
2021/11/15 10:41:34;;;;;;;14.32;8.15;;;7.80;84.00;;;;;;5046833;28;20143;-66
2021/11/15 10:44:00;;;;;;;14.68;7.53;;;7.80;83.80;;;;;;5041063;28;20436;-66
2021/11/15 10:46:35;;;;;;;14.98;7.70;;;7.80;83.80;;;;;;5053165;28;20518;-67
2021/11/15 10:49:07;;;;;;;14.75;7.72;;;7.80;83.60;;;;;;5039889;28;20169;-66
2021/11/15 10:51:42;;;;;;;13.48;7.60;;;7.80;83.70;;;;;;5037998;28;20033;-67
2021/11/15 10:54:32;;;;;;;12.13;7.32;;;7.80;83.60;;;;;;5039988;28;20136;-66
2021/11/15 10:57:14;;;;;;;15.52;8.05;;;7.80;83.70;;;;;;5060092;28;20137;-66
2021/11/15 10:59:39;;;;;;;15.68;8.00;;;7.80;83.70;;;;;;5062418;28;20029;-67
2021/11/15 11:02:27;;;;;;;13.32;8.18;;;7.80;83.80;;;;;;5060833;28;20251;-66
2021/11/15 11:05:16;;;;;;;12.75;7.45;;;7.80;83.80;;;;;;5060154;28;20389;-65
2021/11/15 11:07:44;;;;;;;15.18;7.85;;;7.80;83.70;;;;;;5060633;28;20031;-67
2021/11/15 11:10:14;;;;;;;14.48;7.70;;;7.80;83.70;;;;;;5062350;28;20094;-66
2021/11/15 11:12:45;;;;;;;15.52;8.13;;;7.80;83.70;;;;;;5060014;28;20052;-66
2021/11/15 11:15:22;;;;;;;14.48;7.68;;;7.80;83.70;;;;;;5059422;28;20043;-66
2021/11/15 11:17:59;;;;;;;15.88;8.63;;;7.80;83.60;;;;;;5060104;28;20036;-65
2021/11/15 11:20:49;;;;;;;16.80;8.48;;;7.90;83.60;;;;;;5060146;28;20075;-67
2021/11/15 11:26:19;;;;;;;18.63;8.80;;;7.90;83.70;;;;;;5060434;28;20097;-67
2021/11/15 11:28:54;;;;;;;17.65;9.30;;;8.00;83.60;;;;;;5059769;28;20037;-66
2021/11/15 11:31:21;;;;;;;15.75;8.40;;;7.90;83.60;;;;;;5060414;28;20032;-65
2021/11/15 11:33:48;;;;;;;15.55;8.80;;;7.90;83.60;;;;;;5060054;28;20029;-66
2021/11/15 11:36:15;;;;;;;18.38;9.90;;;8.00;83.60;;;;;;5059351;28;20033;-66
2021/11/15 11:38:43;;;;;;;16.60;8.85;;;7.90;83.40;;;;;;5058906;28;20090;-66
2021/11/15 11:41:10;;;;;;;18.58;10.20;;;7.90;83.40;;;;;;5059363;28;20123;-66
2021/11/15 11:43:36;;;;;;;19.00;9.52;;;7.90;83.40;;;;;;5060551;28;20065;-68
2021/11/15 11:46:01;;;;;;;15.73;9.00;;;7.90;83.50;;;;;;5058549;28;20060;-66
2021/11/15 11:48:28;;;;;;;15.98;8.80;;;7.90;83.60;;;;;;5056279;28;20039;-67
2021/11/15 11:50:57;;;;;;;18.55;9.43;;;7.90;83.60;;;;;;5060031;28;20050;-67
2021/11/15 11:53:26;;;;;;;18.70;9.60;;;7.90;83.70;;;;;;5060728;28;20036;-66
2021/11/15 11:55:53;;;;;;;18.67;9.48;;;7.90;83.80;;;;;;5058353;28;20426;-67
2021/11/15 11:58:29;;;;;;;16.65;9.05;;;7.90;83.70;;;;;;5056995;28;20036;-66
2021/11/15 12:00:57;;;;;;;20.17;9.20;;;7.90;83.60;;;;;;5058989;28;20071;-66
2021/11/15 12:03:24;;;;;;;14.10;8.50;;;7.90;83.60;;;;;;5058598;28;20047;-65
2021/11/15 12:05:54;;;;;;;15.60;8.93;;;7.90;84.00;;;;;;5059584;28;20114;-66
2021/11/15 12:08:39;;;;;;;15.65;8.88;;;7.90;83.40;;;;;;5059318;28;20039;-66
2021/11/15 12:11:25;;;;;;;16.23;8.65;;;8.00;83.40;;;;;;5057834;28;20059;-66
2021/11/15 12:13:52;;;;;;;15.45;8.43;;;7.90;83.10;;;;;;5056919;28;20056;-66
2021/11/15 12:16:18;;;;;;;16.85;8.85;;;8.00;83.40;;;;;;5058151;28;20520;-66
2021/11/15 12:18:58;;;;;;;18.13;9.32;;;7.90;83.30;;;;;;5058110;28;20063;-67
2021/11/15 12:21:32;;;;;;;18.33;9.60;;;8.00;83.10;;;;;;5058604;28;20043;-67
2021/11/15 12:24:04;;;;;;;16.33;8.55;;;8.00;84.10;;;;;;5058791;28;20083;-67
2021/11/15 12:26:49;;;;;;;17.13;9.02;;;8.00;83.30;;;;;;5057109;28;20032;-66
2021/11/15 12:29:29;;;;;;;18.30;8.90;;;8.00;83.10;;;;;;5059791;28;20044;-67
2021/11/15 12:32:01;;;;;;;18.40;9.70;;;8.00;83.10;;;;;;5058736;28;20032;-68
2021/11/15 12:34:38;;;;;;;17.52;9.55;;;8.00;83.10;;;;;;5058198;28;20033;-68
2021/11/15 12:37:07;;;;;;;18.73;10.10;;;8.00;83.10;;;;;;5057478;28;20104;-68
2021/11/15 12:39:43;;;;;;;19.80;10.23;;;8.00;83.10;;;;;;5057261;28;20032;-68
2021/11/15 12:42:35;;;;;;;19.55;9.73;;;8.00;83.10;;;;;;5059551;28;20040;-69
2021/11/15 12:45:08;;;;;;;20.00;10.10;;;8.00;83.30;;;;;;5056884;28;20029;-68
2021/11/15 12:47:42;;;;;;;20.50;10.13;;;8.00;83.40;;;;;;5059015;28;20155;-69
2021/11/15 12:50:16;;;;;;;19.42;11.02;;;7.90;83.40;;;;;;5059490;28;20527;-69